createdAt,value
2019-05-10T00:00:27.470Z,5.65
2019-05-10T00:03:16.651Z,5.20
2019-05-10T00:06:05.819Z,6.60
2019-05-10T00:08:45.418Z,4.95
2019-05-10T00:11:36.889Z,5.73
2019-05-10T00:14:27.887Z,5.92
2019-05-10T00:17:01.219Z,6.50
2019-05-10T00:19:32.459Z,5.67
2019-05-10T00:22:02.990Z,5.10
2019-05-10T00:24:33.865Z,6.58
2019-05-10T00:27:04.805Z,5.75
2019-05-10T00:29:35.661Z,5.35
2019-05-10T00:32:06.537Z,6.75
2019-05-10T00:34:37.475Z,7.87
2019-05-10T00:37:08.454Z,4.37
2019-05-10T00:39:39.305Z,5.15
2019-05-10T00:42:11.288Z,5.53
2019-05-10T00:44:42.349Z,5.95
2019-05-10T00:47:13.310Z,5.55
2019-05-10T00:49:44.473Z,6.03
2019-05-10T00:52:15.411Z,7.85
2019-05-10T00:54:46.489Z,4.85
2019-05-10T00:57:17.448Z,5.85
2019-05-10T00:59:48.303Z,3.52
2019-05-10T01:02:19.365Z,4.28
2019-05-10T01:04:50.201Z,3.72
2019-05-10T01:07:21.384Z,5.35
2019-05-10T01:09:52.323Z,4.58
2019-05-10T01:12:23.179Z,7.95
2019-05-10T01:14:54.138Z,6.80
2019-05-10T01:17:25.119Z,4.08
2019-05-10T01:19:57.012Z,5.37
2019-05-10T01:22:27.747Z,5.17
2019-05-10T01:24:58.810Z,3.72
2019-05-10T01:27:29.768Z,4.87
2019-05-10T01:30:00.726Z,4.47
2019-05-10T01:32:31.785Z,4.70
2019-05-10T01:35:02.625Z,5.65
2019-05-10T01:37:33.498Z,6.08
2019-05-10T01:40:06.360Z,4.75
2019-05-10T01:42:37.872Z,6.25
2019-05-10T01:45:09.337Z,7.50
2019-05-10T01:47:40.287Z,7.33
2019-05-10T01:50:11.462Z,7.60
2019-05-10T01:52:42.403Z,4.72
2019-05-10T01:55:13.681Z,5.85
2019-05-10T01:57:44.743Z,7.03
2019-05-10T02:00:16.011Z,7.85
2019-05-10T02:02:47.273Z,8.58
2019-05-10T02:05:18.437Z,7.90
2019-05-10T02:08:06.917Z,8.18
2019-05-10T03:33:30.867Z,12.25
2019-05-10T03:36:01.940Z,14.10
2019-05-10T03:38:32.898Z,11.95
2019-05-10T03:41:03.631Z,12.95
2019-05-10T03:43:34.716Z,14.18
2019-05-10T03:46:05.670Z,12.65
2019-05-10T03:48:36.714Z,16.05
2019-05-10T03:51:07.688Z,12.80
2019-05-10T03:53:38.529Z,12.25
2019-05-10T03:56:09.492Z,14.28
2019-05-10T03:58:40.462Z,13.68
2019-05-10T04:01:11.624Z,13.35
2019-05-10T04:03:42.583Z,12.95
2019-05-10T04:06:13.437Z,12.88
2019-05-10T04:08:44.634Z,11.03
2019-05-10T04:11:15.660Z,15.72
2019-05-10T04:13:46.722Z,11.68
2019-05-10T04:16:17.560Z,15.80
2019-05-10T04:18:48.545Z,18.77
2019-05-10T04:21:19.597Z,17.30
2019-05-10T04:23:50.558Z,21.75
2019-05-10T04:26:21.505Z,19.98
2019-05-10T04:28:52.472Z,19.20
2019-05-10T04:31:23.334Z,16.55
2019-05-10T04:33:55.314Z,15.10
2019-05-10T04:36:26.355Z,16.77
2019-05-10T04:38:57.310Z,14.63
2019-05-10T04:41:28.387Z,11.43
2019-05-10T04:43:59.357Z,14.28
2019-05-10T04:46:30.289Z,17.95
2019-05-10T04:49:01.371Z,16.07
2019-05-10T04:51:32.312Z,14.65
2019-05-10T04:54:03.369Z,15.00
2019-05-10T04:56:34.348Z,14.95
2019-05-10T04:59:05.302Z,14.87
2019-05-10T05:01:36.274Z,21.05
2019-05-10T05:04:07.325Z,13.38
2019-05-10T05:06:38.263Z,14.55
2019-05-10T05:09:09.238Z,15.10
2019-05-10T05:11:39.972Z,14.75
2019-05-10T05:14:11.052Z,17.45
2019-05-10T05:16:41.891Z,19.27
2019-05-10T05:19:13.538Z,16.80
2019-05-10T05:21:44.437Z,15.88
2019-05-10T05:24:16.930Z,15.30
2019-05-10T05:26:47.790Z,15.65
2019-05-10T05:29:18.747Z,16.30
2019-05-10T05:31:53.958Z,17.48
2019-05-10T05:34:23.014Z,19.48
2019-05-10T05:36:53.957Z,13.90
2019-05-10T05:39:24.928Z,13.00
2019-05-10T05:41:56.563Z,16.93
2019-05-10T05:44:28.112Z,16.30
2019-05-10T05:46:59.133Z,13.38
2019-05-10T05:49:30.148Z,14.43
2019-05-10T05:52:01.154Z,13.75
2019-05-10T05:54:32.020Z,13.32
2019-05-10T05:57:02.969Z,14.65
2019-05-10T05:59:33.930Z,12.18
2019-05-10T06:02:07.650Z,10.63
2019-05-10T06:04:40.854Z,11.03
2019-05-10T06:07:09.444Z,14.63
2019-05-10T06:09:40.520Z,11.75
2019-05-10T06:12:12.602Z,11.75
2019-05-10T06:14:49.592Z,10.78
2019-05-10T06:17:16.158Z,12.43
2019-05-10T06:19:47.098Z,9.48
2019-05-10T06:22:17.953Z,12.65
2019-05-10T06:24:52.469Z,8.65
2019-05-10T06:27:21.321Z,16.67
2019-05-10T06:29:53.814Z,10.63
2019-05-10T06:32:24.554Z,12.73
2019-05-10T06:34:56.428Z,14.05
2019-05-10T06:37:31.058Z,14.00
2019-05-10T06:39:59.792Z,12.53
2019-05-10T06:42:34.590Z,12.55
2019-05-10T06:45:04.889Z,12.03
2019-05-10T06:47:35.517Z,10.15
2019-05-10T06:50:07.616Z,10.32
2019-05-10T06:52:38.675Z,13.32
2019-05-10T06:55:09.839Z,13.90
2019-05-10T06:57:40.899Z,9.28
2019-05-10T07:00:14.382Z,11.78
2019-05-10T07:02:45.787Z,9.28
2019-05-10T07:05:16.928Z,10.30
2019-05-10T07:07:48.005Z,9.05
2019-05-10T07:10:24.841Z,8.50
2019-05-10T07:12:56.485Z,12.65
2019-05-10T07:15:23.646Z,14.18
2019-05-10T07:17:54.482Z,11.55
2019-05-10T07:20:29.449Z,9.33
2019-05-10T07:23:00.087Z,9.40
2019-05-10T07:25:31.770Z,9.45
2019-05-10T07:28:02.507Z,9.70
2019-05-10T07:30:41.144Z,12.98
2019-05-10T07:33:40.110Z,9.48
2019-05-10T07:36:14.705Z,9.95
2019-05-10T07:38:43.073Z,6.75
2019-05-10T07:41:19.494Z,10.35
2019-05-10T07:43:48.312Z,10.13
2019-05-10T07:46:18.712Z,7.87
2019-05-10T07:48:53.283Z,11.60
2019-05-10T07:51:22.732Z,13.85
2019-05-10T07:53:57.083Z,10.18
2019-05-10T07:56:27.150Z,11.97
2019-05-10T07:59:00.538Z,10.75
2019-05-10T08:01:32.845Z,13.95
2019-05-10T08:04:03.226Z,14.95
2019-05-10T08:06:44.386Z,18.52
2019-05-10T08:09:09.790Z,24.65
2019-05-10T08:11:40.551Z,17.48
2019-05-10T08:14:11.631Z,21.68
2019-05-10T08:16:42.587Z,17.07
2019-05-10T08:19:13.471Z,26.35
2019-05-10T08:21:48.719Z,26.07
2019-05-10T08:24:16.998Z,26.62
2019-05-10T08:26:47.836Z,17.40
2019-05-10T08:29:18.916Z,18.80
2019-05-10T08:31:53.612Z,18.70
2019-05-10T08:34:22.842Z,13.60
2019-05-10T08:36:53.835Z,11.97
2019-05-10T08:39:24.779Z,16.27
2019-05-10T08:42:03.961Z,10.32
2019-05-10T08:44:28.141Z,10.25
2019-05-10T08:46:58.792Z,8.95
2019-05-10T08:49:35.651Z,7.47
2019-05-10T08:52:02.939Z,8.10
2019-05-10T08:54:33.916Z,7.80
2019-05-10T08:57:05.452Z,7.25
2019-05-10T08:59:36.350Z,8.38
2019-05-10T09:02:07.409Z,6.17
2019-05-10T09:04:45.362Z,8.88
2019-05-10T09:07:11.894Z,9.03
2019-05-10T09:09:49.762Z,8.28
2019-05-10T09:12:14.923Z,8.40
2019-05-10T09:14:48.718Z,8.70
2019-05-10T09:17:25.298Z,8.28
2019-05-10T09:19:51.809Z,7.72
2019-05-10T09:22:24.016Z,6.50
2019-05-10T09:24:55.235Z,3.95
2019-05-10T09:27:29.121Z,6.55
2019-05-10T09:29:58.793Z,9.30
2019-05-10T09:32:32.978Z,7.85
2019-05-10T09:35:07.570Z,4.95
2019-05-10T09:37:35.122Z,2.77
2019-05-10T09:40:09.983Z,2.22
2019-05-10T09:42:43.193Z,5.08
2019-05-10T09:45:13.829Z,2.50
2019-05-10T09:47:44.703Z,5.17
2019-05-10T09:50:16.071Z,3.62
2019-05-10T09:52:46.605Z,5.75
2019-05-10T09:55:17.781Z,3.60
2019-05-10T09:57:48.743Z,6.60
2019-05-10T10:00:22.562Z,3.37
2019-05-10T10:03:01.197Z,2.45
2019-05-10T10:05:31.382Z,2.30
2019-05-10T10:08:13.745Z,2.30
2019-05-10T10:10:47.450Z,3.40
2019-05-10T10:13:35.689Z,5.53
2019-05-10T10:15:52.381Z,3.05
2019-05-10T10:18:25.318Z,4.03
2019-05-10T10:20:58.109Z,3.50
2019-05-10T10:23:33.113Z,3.92
2019-05-10T10:26:01.806Z,2.95
2019-05-10T10:28:36.204Z,2.62
2019-05-10T10:31:05.553Z,1.87
2019-05-10T10:33:37.945Z,3.33
2019-05-10T10:36:10.679Z,1.20
2019-05-10T10:38:45.236Z,1.55
2019-05-10T10:41:17.101Z,2.85
2019-05-10T10:43:48.451Z,2.85
2019-05-10T10:46:19.962Z,2.90
2019-05-10T10:48:51.593Z,2.98
2019-05-10T10:51:26.541Z,3.75
2019-05-10T10:53:58.035Z,4.37
2019-05-10T10:56:28.646Z,5.42
2019-05-10T10:58:59.708Z,6.75
2019-05-10T11:01:45.930Z,3.65
2019-05-10T11:04:07.937Z,4.83
2019-05-10T11:06:35.450Z,4.83
2019-05-10T11:09:09.475Z,4.35
2019-05-10T11:11:44.504Z,4.30
2019-05-10T11:14:13.232Z,5.45
2019-05-10T11:16:46.588Z,3.10
2019-05-10T11:19:16.461Z,2.27
2019-05-10T11:21:47.434Z,1.65
2019-05-10T11:24:22.392Z,4.50
2019-05-10T11:26:51.720Z,2.15
2019-05-10T11:29:27.749Z,1.80
2019-05-10T11:32:12.303Z,1.50
2019-05-10T11:34:29.328Z,1.00
2019-05-10T11:36:59.832Z,1.00
2019-05-10T11:39:33.233Z,1.52
2019-05-10T11:42:07.211Z,3.20
2019-05-10T11:44:35.468Z,3.22
2019-05-10T11:47:20.992Z,2.00
2019-05-10T11:49:40.610Z,2.67
2019-05-10T11:52:13.202Z,5.62
2019-05-10T11:54:43.991Z,6.12
2019-05-10T11:57:15.068Z,2.77
2019-05-10T11:59:46.035Z,3.20
2019-05-10T12:02:35.332Z,4.53
2019-05-10T12:04:52.589Z,2.83
2019-05-10T12:07:26.850Z,2.47
2019-05-10T12:10:03.315Z,2.50
2019-05-10T12:12:44.842Z,2.08
2019-05-10T12:14:58.715Z,1.42
2019-05-10T12:17:29.690Z,1.47
2019-05-10T12:20:02.489Z,1.60
2019-05-10T12:22:38.277Z,1.60
2019-05-10T12:25:28.308Z,1.60
2019-05-10T12:27:45.253Z,1.57
2019-05-10T12:30:15.819Z,1.67
2019-05-10T12:32:55.782Z,1.20
2019-05-10T12:35:17.649Z,1.22
2019-05-10T12:37:51.441Z,1.85
2019-05-10T12:40:24.141Z,0.98
2019-05-10T12:42:53.795Z,1.60
2019-05-10T12:45:24.856Z,1.32
2019-05-10T12:47:55.797Z,4.15
2019-05-10T12:50:26.669Z,1.42
2019-05-10T12:53:13.658Z,1.60
2019-05-10T12:55:30.019Z,2.25
2019-05-10T12:58:01.081Z,3.35
2019-05-10T13:00:31.920Z,1.45
2019-05-10T13:03:12.080Z,2.35
2019-05-10T13:05:50.223Z,2.10
2019-05-10T13:08:07.863Z,2.62
2019-05-10T13:10:43.574Z,1.12
2019-05-10T13:13:11.720Z,1.85
2019-05-10T13:15:42.801Z,1.77
2019-05-10T13:18:13.775Z,1.77
2019-05-10T13:20:44.614Z,3.22
2019-05-10T13:23:18.327Z,1.30
2019-05-10T13:25:48.075Z,1.32
2019-05-10T13:28:18.700Z,0.95
2019-05-10T13:30:49.572Z,0.95
2019-05-10T13:33:28.833Z,1.95
2019-05-10T13:35:56.492Z,1.82
2019-05-10T13:38:25.415Z,1.32
2019-05-10T13:40:56.374Z,1.50
2019-05-10T13:43:28.436Z,2.47
2019-05-10T13:45:59.416Z,2.47
2019-05-10T13:48:30.479Z,1.82
2019-05-10T13:51:01.335Z,2.58
2019-05-10T13:53:32.375Z,5.20
2019-05-10T13:56:03.365Z,2.87
2019-05-10T13:58:34.411Z,2.30
2019-05-10T14:01:06.840Z,2.30
2019-05-10T14:03:44.304Z,2.62
2019-05-10T14:06:10.030Z,2.52
2019-05-10T14:08:42.988Z,3.33
2019-05-10T14:11:13.277Z,2.90
2019-05-10T14:13:44.150Z,4.42
2019-05-10T14:16:19.801Z,6.15
2019-05-10T14:18:47.276Z,4.35
2019-05-10T14:21:18.865Z,7.72
2019-05-10T14:23:49.823Z,7.80
2019-05-10T14:26:20.770Z,6.62
2019-05-10T14:28:52.974Z,4.75
2019-05-10T14:31:24.336Z,4.10
2019-05-10T14:36:27.992Z,8.88
2019-05-10T14:38:58.949Z,8.85
2019-05-10T14:41:29.907Z,8.23
2019-05-10T14:44:00.865Z,6.50
2019-05-10T14:46:31.928Z,8.28
2019-05-10T14:49:09.953Z,7.08
2019-05-10T14:51:44.360Z,6.78
2019-05-10T14:54:08.971Z,11.03
2019-05-10T14:56:39.748Z,9.78
2019-05-10T14:59:10.707Z,6.15
2019-05-10T15:01:43.026Z,4.87
2019-05-10T15:04:20.069Z,5.47
2019-05-10T15:06:46.241Z,6.15
2019-05-10T15:09:21.678Z,6.17
2019-05-10T15:11:49.590Z,8.80
2019-05-10T15:14:20.533Z,8.65
2019-05-10T15:16:51.608Z,4.12
2019-05-10T15:19:25.886Z,4.97
2019-05-10T15:21:55.062Z,4.83
2019-05-10T15:24:26.106Z,6.65
2019-05-10T15:26:56.976Z,4.62
2019-05-10T15:29:28.021Z,4.25
2019-05-10T15:31:58.994Z,6.05
2019-05-10T15:34:30.054Z,5.55
2019-05-10T15:37:02.447Z,3.60
2019-05-10T15:39:33.403Z,6.65
2019-05-10T15:42:04.756Z,4.78
2019-05-10T15:44:35.422Z,3.98
2019-05-10T15:47:06.547Z,8.18
2019-05-10T15:49:37.647Z,6.37
2019-05-10T15:52:17.344Z,4.75
2019-05-10T15:54:44.656Z,3.95
2019-05-10T15:57:14.552Z,4.53
2019-05-10T15:59:50.558Z,4.05
2019-05-10T16:02:18.167Z,7.92
2019-05-10T16:04:49.128Z,3.08
2019-05-10T16:07:20.064Z,4.78
2019-05-10T16:09:54.783Z,3.90
2019-05-10T16:12:23.433Z,2.92
2019-05-10T16:14:54.270Z,5.03
2019-05-10T16:17:25.395Z,3.72
2019-05-10T16:19:59.456Z,3.45
2019-05-10T16:22:30.283Z,3.45
2019-05-10T16:25:02.841Z,8.25
2019-05-10T16:27:39.157Z,9.88
2019-05-10T16:30:11.866Z,4.25
2019-05-10T16:32:40.820Z,6.42
2019-05-10T16:35:14.720Z,4.12
2019-05-10T16:37:45.377Z,5.45
2019-05-10T16:40:16.552Z,5.00
2019-05-10T16:42:47.620Z,6.08
2019-05-10T16:45:18.987Z,5.03
2019-05-10T16:47:49.927Z,5.80
2019-05-10T16:50:25.963Z,5.25
2019-05-10T16:52:53.169Z,4.83
2019-05-10T16:55:24.246Z,5.47
2019-05-10T16:57:55.086Z,8.08
2019-05-10T17:00:26.396Z,8.73
2019-05-10T17:02:57.005Z,10.90
2019-05-10T17:05:27.959Z,11.33
2019-05-10T17:07:59.145Z,10.35
2019-05-10T17:10:32.932Z,8.70
2019-05-10T17:13:04.969Z,9.23
2019-05-10T17:15:39.698Z,11.30
2019-05-10T17:18:10.816Z,10.05
2019-05-10T17:20:40.479Z,7.80
2019-05-10T17:23:11.544Z,11.93
2019-05-10T17:25:43.485Z,10.48
2019-05-10T17:28:14.465Z,19.92
2019-05-10T17:30:45.336Z,58.20
2019-05-10T17:33:16.282Z,102.07
2019-05-10T17:35:47.336Z,77.17
2019-05-10T17:38:18.417Z,83.82
2019-05-10T17:40:50.057Z,51.18
2019-05-10T17:43:22.615Z,54.65
2019-05-10T17:45:53.335Z,28.85
2019-05-10T17:48:24.400Z,26.07
2019-05-10T17:50:55.360Z,35.25
2019-05-10T17:53:26.212Z,25.32
2019-05-10T17:56:02.338Z,28.05
2019-05-10T17:58:33.911Z,35.35
2019-05-10T18:01:02.161Z,39.78
2019-05-10T18:03:32.814Z,36.90
2019-05-10T18:06:04.053Z,33.25
2019-05-10T18:08:35.131Z,45.88
2019-05-10T18:11:06.308Z,50.52
2019-05-10T18:13:40.768Z,51.75
2019-05-10T18:16:10.985Z,34.55
2019-05-10T18:18:46.613Z,38.02
2019-05-10T18:21:16.032Z,22.75
2019-05-10T18:23:46.712Z,20.60
2019-05-10T18:26:17.552Z,28.75
2019-05-10T18:28:49.141Z,23.22
2019-05-10T18:31:19.774Z,44.53
2019-05-10T18:33:54.649Z,46.15
2019-05-10T18:36:24.792Z,49.85
2019-05-10T18:38:55.823Z,51.55
2019-05-10T18:41:26.903Z,61.10
2019-05-10T18:43:57.857Z,53.33
2019-05-10T18:46:28.815Z,55.48
2019-05-10T18:48:59.672Z,54.73
2019-05-10T18:51:30.529Z,43.85
2019-05-10T18:54:01.587Z,31.10
2019-05-10T18:56:33.234Z,29.20
2019-05-10T18:59:07.319Z,32.98
2019-05-10T19:01:38.723Z,34.35
2019-05-10T19:04:14.131Z,34.20
2019-05-10T19:06:44.070Z,33.40
2019-05-10T19:09:15.112Z,35.08
2019-05-10T19:11:46.016Z,31.82
2019-05-10T19:14:17.130Z,32.42
2019-05-10T19:16:47.991Z,30.25
2019-05-10T19:19:18.927Z,36.13
2019-05-10T19:21:49.901Z,31.23
2019-05-10T19:24:24.371Z,33.40
2019-05-10T19:26:53.456Z,32.25
2019-05-10T19:29:27.380Z,39.92
2019-05-10T19:31:56.909Z,39.25
2019-05-10T19:34:27.851Z,38.28
2019-05-10T19:36:58.806Z,42.60
2019-05-10T19:39:29.867Z,36.93
2019-05-10T19:42:03.802Z,35.00
2019-05-10T19:44:34.546Z,41.85
2019-05-10T19:47:11.006Z,34.30
2019-05-10T19:49:38.525Z,39.67
2019-05-10T19:52:09.585Z,30.62
2019-05-10T19:54:40.542Z,32.63
2019-05-10T19:57:16.375Z,31.73
2019-05-10T19:59:48.621Z,30.32
2019-05-10T20:02:16.795Z,35.80
2019-05-10T20:04:47.859Z,33.05
2019-05-10T20:07:18.708Z,37.42
2019-05-10T20:09:49.769Z,32.33
2019-05-10T20:12:21.999Z,39.00
2019-05-10T20:14:52.794Z,36.15
2019-05-10T20:17:23.854Z,33.30
2019-05-10T20:19:54.834Z,37.93
2019-05-10T20:22:25.688Z,32.55
2019-05-10T20:24:56.646Z,36.68
2019-05-10T20:27:27.584Z,33.78
2019-05-10T20:29:58.442Z,36.15
2019-05-10T20:32:29.503Z,60.63
2019-05-10T20:35:00.582Z,90.90
2019-05-10T20:37:31.624Z,132.15
2019-05-10T20:40:02.611Z,149.15
2019-05-10T20:42:33.458Z,85.40
2019-05-10T20:45:08.087Z,46.15
2019-05-10T20:47:37.298Z,33.38
2019-05-10T20:50:08.562Z,28.23
2019-05-10T20:52:39.254Z,19.30
2019-05-10T20:55:10.274Z,16.82
2019-05-10T20:57:41.352Z,21.30
2019-05-10T21:00:12.416Z,20.68
2019-05-10T21:02:43.457Z,20.27
2019-05-10T21:05:14.312Z,25.10
2019-05-10T21:07:45.391Z,29.20
2019-05-10T21:10:16.349Z,23.12
2019-05-10T21:12:47.186Z,24.67
2019-05-10T21:15:18.266Z,22.67
2019-05-10T21:17:49.225Z,22.17
2019-05-10T21:20:20.285Z,22.70
2019-05-10T21:22:51.245Z,23.42
2019-05-10T21:25:22.184Z,26.73
2019-05-10T21:27:53.160Z,21.37
2019-05-10T21:30:23.998Z,19.90
2019-05-10T21:32:55.076Z,12.58
2019-05-10T21:35:25.914Z,12.78
2019-05-10T21:37:56.788Z,15.40
2019-05-10T21:40:27.729Z,19.10
2019-05-10T21:42:58.685Z,11.40
2019-05-10T21:45:29.561Z,13.32
2019-05-10T21:48:00.618Z,12.63
2019-05-10T21:50:31.582Z,12.93
2019-05-10T21:53:02.335Z,14.45
2019-05-10T21:55:33.177Z,18.82
2019-05-10T21:58:03.843Z,20.27
2019-05-10T22:00:42.468Z,16.00
2019-05-10T22:03:13.427Z,16.00
2019-05-10T22:05:44.384Z,13.60
2019-05-10T22:08:15.327Z,14.07
2019-05-10T22:10:46.391Z,11.05
2019-05-10T22:13:17.040Z,16.23
2019-05-10T22:15:47.913Z,10.58
2019-05-10T22:18:18.972Z,10.95
2019-05-10T22:20:49.815Z,11.03
2019-05-10T22:23:20.892Z,12.13
2019-05-10T22:25:51.849Z,10.72
2019-05-10T22:28:22.686Z,9.93
2019-05-10T22:30:53.762Z,10.00
2019-05-10T22:33:24.707Z,11.57
2019-05-10T22:35:55.578Z,13.13
2019-05-10T22:38:26.640Z,10.25
2019-05-10T22:40:57.477Z,11.95
2019-05-10T22:43:28.441Z,15.55
2019-05-10T22:45:59.410Z,12.13
2019-05-10T22:48:30.370Z,13.18
2019-05-10T22:51:01.313Z,12.45
2019-05-10T22:53:32.270Z,15.23
2019-05-10T22:56:03.135Z,16.27
2019-05-10T22:58:34.185Z,13.40
2019-05-10T23:01:05.161Z,13.05
2019-05-10T23:03:36.225Z,12.90
2019-05-10T23:06:07.059Z,14.43
2019-05-10T23:08:38.025Z,11.28
2019-05-10T23:11:09.096Z,15.45
2019-05-10T23:13:40.054Z,14.53
2019-05-10T23:16:10.894Z,26.17
2019-05-10T23:18:41.973Z,19.55
2019-05-10T23:21:12.929Z,17.17
2019-05-10T23:23:43.788Z,11.55
2019-05-10T23:26:14.419Z,9.85
2019-05-10T23:28:45.498Z,12.95
2019-05-10T23:31:16.358Z,10.98
2019-05-10T23:33:47.416Z,12.25
2019-05-10T23:36:18.256Z,10.75
2019-05-10T23:38:52.241Z,11.25
2019-05-10T23:41:21.620Z,9.43
2019-05-10T23:43:52.476Z,10.30
2019-05-10T23:46:23.537Z,8.43
2019-05-10T23:48:54.610Z,8.88
2019-05-10T23:51:25.659Z,10.55
2019-05-10T23:53:56.701Z,8.98
2019-05-10T23:56:27.581Z,9.70
2019-05-10T23:58:58.633Z,7.65
